Time;durP1;ratioP1;P1;durP2;ratioP2;P2;SDS_P1;SDS_P2;PMS_P1;PMS_P2;Temp;Humidity;BMP_temperature;BMP_pressure;BME280_temperature;BME280_humidity;BME280_pressure;Samples;Min_cycle;Max_cycle;Signal;HPM_P1;HPM_P2
2021/07/08 00:00:17;;;;;;;1.10;1.00;;;22.10;71.80;;;;;;5116197;28;20071;-48
2021/07/08 00:02:43;;;;;;;1.35;1.10;;;22.20;71.80;;;;;;5115223;28;20124;-49
2021/07/08 00:05:12;;;;;;;1.73;1.15;;;22.20;71.80;;;;;;5115256;28;20665;-47
2021/07/08 00:07:38;;;;;;;1.30;1.20;;;22.10;71.80;;;;;;5116239;28;20047;-43
2021/07/08 00:10:18;;;;;;;1.20;1.10;;;22.10;71.80;;;;;;5116178;28;20056;-44
2021/07/08 00:12:43;;;;;;;1.25;1.10;;;22.10;71.80;;;;;;5116095;28;20096;-46
2021/07/08 00:15:18;;;;;;;1.30;1.10;;;22.10;71.80;;;;;;5113976;28;20048;-43
2021/07/08 00:17:45;;;;;;;1.42;1.20;;;22.10;71.80;;;;;;5103526;28;20048;-51
2021/07/08 00:20:15;;;;;;;1.05;0.95;;;22.10;71.90;;;;;;5095150;28;20495;-44
2021/07/08 00:22:40;;;;;;;1.42;1.27;;;22.10;71.90;;;;;;5095477;28;20109;-50
2021/07/08 00:25:12;;;;;;;1.38;1.25;;;22.10;71.90;;;;;;5096344;28;20439;-53
2021/07/08 00:27:38;;;;;;;1.13;1.02;;;22.10;71.80;;;;;;5094954;28;20519;-49
2021/07/08 00:30:07;;;;;;;1.73;1.40;;;22.10;71.90;;;;;;5076727;28;20149;-40
2021/07/08 00:32:33;;;;;;;1.20;1.10;;;22.10;71.90;;;;;;5095109;28;20047;-52
2021/07/08 00:34:59;;;;;;;1.35;1.25;;;22.10;71.90;;;;;;5095831;28;20190;-48
2021/07/08 00:37:25;;;;;;;1.20;1.10;;;22.10;71.90;;;;;;5095009;28;20044;-44
2021/07/08 00:39:51;;;;;;;1.40;1.17;;;22.10;71.90;;;;;;5095029;28;20044;-45
2021/07/08 00:42:17;;;;;;;1.20;1.10;;;22.10;71.90;;;;;;5094885;28;20068;-52
2021/07/08 00:44:42;;;;;;;2.00;1.17;;;22.10;71.90;;;;;;5094907;28;20059;-47
2021/07/08 00:47:09;;;;;;;1.50;1.40;;;22.10;71.90;;;;;;5095961;28;20055;-46
2021/07/08 00:49:35;;;;;;;1.10;1.00;;;22.10;72.00;;;;;;5094574;28;20407;-42
2021/07/08 00:52:00;;;;;;;1.30;1.20;;;22.10;72.00;;;;;;5094729;28;20086;-44
2021/07/08 00:54:26;;;;;;;1.45;1.35;;;22.10;72.00;;;;;;5094806;28;20047;-44
2021/07/08 00:56:52;;;;;;;1.08;1.02;;;22.10;72.00;;;;;;5095389;28;20047;-52
2021/07/08 00:59:18;;;;;;;1.40;1.30;;;22.10;72.00;;;;;;5097185;28;20048;-50
2021/07/08 01:01:45;;;;;;;1.35;1.00;;;22.10;72.00;;;;;;5114027;28;20130;-46
2021/07/08 01:04:11;;;;;;;1.25;1.15;;;22.00;72.00;;;;;;5114945;28;20153;-51
2021/07/08 01:06:46;;;;;;;1.30;1.20;;;22.10;72.00;;;;;;5113701;28;20048;-42
2021/07/08 01:09:13;;;;;;;1.52;1.42;;;22.00;72.00;;;;;;5094574;28;20119;-47
2021/07/08 01:11:39;;;;;;;1.30;1.20;;;22.10;72.10;;;;;;5094508;28;20066;-44
2021/07/08 01:14:06;;;;;;;1.10;1.00;;;22.00;72.00;;;;;;5094466;28;20108;-41
2021/07/08 01:16:33;;;;;;;1.42;1.05;;;22.00;72.00;;;;;;5094652;28;20185;-44
2021/07/08 01:18:59;;;;;;;1.30;1.20;;;22.10;72.10;;;;;;5095532;28;20533;-44
2021/07/08 01:21:34;;;;;;;0.85;0.85;;;22.00;72.00;;;;;;5094069;28;20085;-52
2021/07/08 01:24:02;;;;;;;1.30;1.17;;;22.10;72.10;;;;;;5094472;28;20101;-45
2021/07/08 01:26:28;;;;;;;1.23;1.15;;;22.00;72.10;;;;;;5094154;28;20044;-47
2021/07/08 01:29:02;;;;;;;1.33;1.23;;;22.00;72.10;;;;;;5095397;28;20044;-42
2021/07/08 01:31:28;;;;;;;1.00;0.90;;;22.00;72.10;;;;;;5094886;28;20106;-51
2021/07/08 01:33:54;;;;;;;1.20;1.10;;;22.00;72.10;;;;;;5095122;28;20561;-52
2021/07/08 01:36:20;;;;;;;1.35;1.25;;;22.00;72.10;;;;;;5094390;28;20044;-49
2021/07/08 01:38:46;;;;;;;1.10;0.95;;;22.00;72.10;;;;;;5094949;28;20048;-40
2021/07/08 01:41:12;;;;;;;1.27;1.17;;;22.00;72.10;;;;;;5093896;28;20093;-48
2021/07/08 01:43:40;;;;;;;1.40;1.30;;;22.00;72.20;;;;;;5094114;28;20131;-50
2021/07/08 01:46:08;;;;;;;1.17;1.08;;;22.00;72.20;;;;;;5094171;28;20048;-43
2021/07/08 01:48:35;;;;;;;1.40;0.95;;;22.00;72.20;;;;;;5094170;28;20052;-45
2021/07/08 01:51:13;;;;;;;1.42;1.33;;;22.00;72.20;;;;;;5094982;28;20075;-48
2021/07/08 01:53:38;;;;;;;1.40;1.30;;;22.00;72.20;;;;;;5093343;28;20132;-40
2021/07/08 01:56:04;;;;;;;1.30;1.20;;;22.00;72.20;;;;;;5093588;28;20126;-41
2021/07/08 01:58:30;;;;;;;1.45;1.35;;;22.00;72.20;;;;;;5094467;28;20043;-42
2021/07/08 02:00:55;;;;;;;1.30;1.17;;;22.00;72.20;;;;;;5103265;28;20445;-50
2021/07/08 02:03:21;;;;;;;1.25;1.15;;;22.00;72.20;;;;;;5114118;28;20475;-44
2021/07/08 02:05:47;;;;;;;1.08;1.05;;;22.00;72.20;;;;;;5113952;28;20128;-48
2021/07/08 02:08:13;;;;;;;1.30;1.20;;;22.00;72.30;;;;;;5111797;28;20063;-49
2021/07/08 02:10:39;;;;;;;1.23;1.13;;;22.00;72.20;;;;;;5113576;28;20047;-45
2021/07/08 02:13:05;;;;;;;0.98;0.95;;;21.90;72.20;;;;;;5113697;28;20048;-50
2021/07/08 02:15:31;;;;;;;1.80;1.48;;;22.00;72.30;;;;;;5113761;28;20541;-45
2021/07/08 02:17:56;;;;;;;1.25;1.15;;;22.00;72.30;;;;;;5113617;28;20043;-48
2021/07/08 02:20:22;;;;;;;1.17;1.08;;;22.00;72.30;;;;;;5111608;28;20040;-48
2021/07/08 02:22:48;;;;;;;1.30;1.20;;;21.90;72.20;;;;;;5098615;28;20048;-46
2021/07/08 02:25:15;;;;;;;1.58;1.40;;;22.00;72.30;;;;;;5092726;28;20392;-43
2021/07/08 02:27:42;;;;;;;1.40;1.27;;;21.90;72.20;;;;;;5092983;28;20074;-42
2021/07/08 02:30:13;;;;;;;1.10;1.00;;;21.90;72.30;;;;;;5103770;28;20058;-54
2021/07/08 02:32:44;;;;;;;1.25;1.10;;;21.90;72.20;;;;;;5113417;28;20063;-47
2021/07/08 02:35:11;;;;;;;1.20;1.10;;;22.00;72.30;;;;;;5113409;28;20150;-48
2021/07/08 02:37:38;;;;;;;1.67;1.20;;;21.90;72.30;;;;;;5112849;28;20097;-51
2021/07/08 02:40:11;;;;;;;1.40;1.30;;;22.00;72.30;;;;;;5111095;28;20097;-47
2021/07/08 02:42:37;;;;;;;1.40;1.30;;;22.00;72.30;;;;;;5113209;28;20441;-48
2021/07/08 02:45:06;;;;;;;1.38;1.27;;;21.90;72.30;;;;;;5113066;28;20480;-53
2021/07/08 02:47:32;;;;;;;1.38;1.27;;;21.90;72.30;;;;;;5113115;28;20110;-49
2021/07/08 02:49:58;;;;;;;1.30;1.20;;;21.90;72.30;;;;;;5112631;28;20085;-36
2021/07/08 02:52:23;;;;;;;1.30;1.20;;;21.90;72.30;;;;;;5111351;28;20067;-41
2021/07/08 02:54:49;;;;;;;1.23;1.15;;;21.90;72.30;;;;;;5112672;28;20056;-45
2021/07/08 02:57:15;;;;;;;1.60;1.35;;;21.90;72.30;;;;;;5112476;28;20097;-53
2021/07/08 02:59:41;;;;;;;1.48;1.30;;;22.00;72.40;;;;;;5112573;28;20040;-53
2021/07/08 03:02:06;;;;;;;2.33;1.60;;;21.90;72.30;;;;;;5110854;28;20051;-52
2021/07/08 03:04:32;;;;;;;1.45;1.35;;;21.90;72.40;;;;;;5112291;28;20043;-44
2021/07/08 03:06:58;;;;;;;1.98;1.40;;;21.90;72.40;;;;;;5111969;28;20051;-42
2021/07/08 03:09:24;;;;;;;1.23;1.02;;;21.90;72.40;;;;;;5111665;28;20048;-53
2021/07/08 03:11:49;;;;;;;1.85;1.27;;;21.90;72.40;;;;;;5109630;28;20051;-49
2021/07/08 03:14:15;;;;;;;1.27;1.17;;;21.90;72.40;;;;;;5111386;28;20066;-46
2021/07/08 03:16:41;;;;;;;1.27;1.10;;;21.90;72.40;;;;;;5111528;28;20139;-52
2021/07/08 03:19:13;;;;;;;1.45;1.30;;;21.90;72.40;;;;;;5112295;28;20483;-51
2021/07/08 03:21:39;;;;;;;1.08;0.98;;;21.90;72.40;;;;;;5112461;28;20081;-49
2021/07/08 03:24:06;;;;;;;1.40;1.30;;;21.90;73.10;;;;;;5107943;28;20044;-40
2021/07/08 03:26:33;;;;;;;1.67;1.58;;;21.90;73.10;;;;;;5091998;28;20048;-46
2021/07/08 03:28:58;;;;;;;1.20;1.10;;;21.90;72.40;;;;;;5091753;28;20078;-49
2021/07/08 03:31:24;;;;;;;1.70;1.38;;;21.90;72.40;;;;;;5092201;28;20484;-46
2021/07/08 03:33:50;;;;;;;1.33;1.23;;;21.90;72.40;;;;;;5093177;28;20044;-46
2021/07/08 03:36:16;;;;;;;1.63;1.25;;;21.90;72.40;;;;;;5092164;28;20047;-43
2021/07/08 03:38:42;;;;;;;1.15;1.05;;;21.90;72.40;;;;;;5091865;28;20048;-46
2021/07/08 03:41:07;;;;;;;1.30;1.20;;;21.90;72.40;;;;;;5092333;28;20130;-46
2021/07/08 03:43:33;;;;;;;1.65;1.52;;;21.90;72.40;;;;;;5092975;28;20411;-41
2021/07/08 03:45:59;;;;;;;1.98;1.58;;;21.90;72.50;;;;;;5092093;28;20044;-44
2021/07/08 03:48:24;;;;;;;1.52;1.40;;;21.90;72.50;;;;;;5092289;28;20044;-52
2021/07/08 03:50:51;;;;;;;1.40;1.27;;;21.90;72.50;;;;;;5092437;28;20380;-51
2021/07/08 03:53:16;;;;;;;1.40;1.30;;;21.90;72.50;;;;;;5073724;28;20150;-47
2021/07/08 03:55:42;;;;;;;1.40;1.30;;;21.80;72.50;;;;;;5092817;28;20407;-48
2021/07/08 03:58:08;;;;;;;1.30;1.20;;;21.80;72.40;;;;;;5091692;28;20044;-46
2021/07/08 04:00:39;;;;;;;1.30;1.20;;;21.80;72.50;;;;;;5092298;28;20476;-50
2021/07/08 04:03:11;;;;;;;1.58;1.48;;;21.80;72.50;;;;;;5091890;28;20048;-50
2021/07/08 04:05:38;;;;;;;1.20;1.10;;;21.80;72.50;;;;;;5093005;28;20040;-44
2021/07/08 04:08:05;;;;;;;1.25;1.15;;;21.80;72.50;;;;;;5091764;28;20051;-50
2021/07/08 04:10:31;;;;;;;2.33;1.10;;;21.80;72.50;;;;;;5091775;28;20090;-48
2021/07/08 04:12:57;;;;;;;1.98;1.55;;;21.80;72.50;;;;;;5091918;28;20112;-46
2021/07/08 04:15:24;;;;;;;0.82;0.82;;;21.80;72.50;;;;;;5092178;28;20127;-46
2021/07/08 04:17:50;;;;;;;1.13;1.05;;;21.80;72.50;;;;;;5091466;28;20051;-46
2021/07/08 04:20:19;;;;;;;1.40;1.30;;;21.80;72.50;;;;;;5091661;28;20044;-52
2021/07/08 04:22:46;;;;;;;1.40;1.30;;;21.80;72.50;;;;;;5091562;28;20076;-53
2021/07/08 04:25:13;;;;;;;1.70;1.35;;;21.80;72.50;;;;;;5091731;28;20062;-48
2021/07/08 04:27:40;;;;;;;1.50;1.40;;;21.80;72.50;;;;;;5092556;28;20064;-49
2021/07/08 04:30:09;;;;;;;1.08;1.05;;;21.80;72.50;;;;;;5100293;28;20503;-51
2021/07/08 04:32:36;;;;;;;1.40;1.30;;;21.80;72.50;;;;;;5111832;28;20047;-51
2021/07/08 04:35:02;;;;;;;1.05;1.02;;;21.80;72.50;;;;;;5112171;28;20051;-46
2021/07/08 04:37:28;;;;;;;1.92;1.30;;;21.80;72.50;;;;;;5113881;28;20501;-50
2021/07/08 04:40:16;;;;;;;1.52;1.42;;;21.80;72.60;;;;;;5100649;28;20043;-51
2021/07/08 04:42:42;;;;;;;1.15;1.13;;;21.80;72.50;;;;;;5115517;28;20407;-46
2021/07/08 04:45:10;;;;;;;1.50;1.38;;;21.70;72.50;;;;;;5115348;28;20402;-50
2021/07/08 04:47:37;;;;;;;1.45;1.35;;;21.80;72.60;;;;;;5113525;28;20164;-48
2021/07/08 04:50:05;;;;;;;1.17;1.10;;;21.80;72.60;;;;;;5115399;28;20055;-42
2021/07/08 04:52:31;;;;;;;1.45;1.35;;;21.80;72.60;;;;;;5115275;28;20047;-50
2021/07/08 04:54:57;;;;;;;1.35;1.10;;;21.80;72.60;;;;;;5115356;28;20384;-50
2021/07/08 04:57:23;;;;;;;1.13;1.02;;;21.80;72.60;;;;;;5115300;28;20047;-50
2021/07/08 04:59:49;;;;;;;1.58;1.25;;;21.80;72.60;;;;;;5113251;28;20047;-50
2021/07/08 05:02:15;;;;;;;1.20;1.10;;;21.80;72.60;;;;;;5114801;28;20055;-50
2021/07/08 05:04:41;;;;;;;1.40;1.10;;;21.80;72.60;;;;;;5115110;28;20484;-45
2021/07/08 05:07:07;;;;;;;1.15;1.05;;;21.80;72.60;;;;;;5114661;28;20048;-49
2021/07/08 05:09:33;;;;;;;1.02;1.02;;;21.80;72.60;;;;;;5113128;28;20404;-48
2021/07/08 05:11:58;;;;;;;1.20;1.10;;;21.80;72.60;;;;;;5114869;28;20044;-50
2021/07/08 05:14:24;;;;;;;1.08;1.00;;;21.80;72.60;;;;;;5114762;28;20062;-52
2021/07/08 05:16:50;;;;;;;0.90;0.90;;;21.80;72.60;;;;;;5114385;28;20499;-46
2021/07/08 05:19:15;;;;;;;1.17;1.08;;;21.80;72.60;;;;;;5113075;28;20502;-43
2021/07/08 05:21:49;;;;;;;1.30;1.20;;;21.80;72.70;;;;;;5114368;28;20044;-50
2021/07/08 05:24:21;;;;;;;1.33;1.23;;;21.80;73.30;;;;;;5114466;28;20062;-50
2021/07/08 05:26:47;;;;;;;1.08;1.00;;;21.80;72.60;;;;;;5114583;28;20043;-49
2021/07/08 05:29:13;;;;;;;2.03;1.20;;;21.80;72.60;;;;;;5114408;28;20519;-48
2021/07/08 05:31:39;;;;;;;1.10;1.00;;;21.80;72.60;;;;;;5112544;28;20044;-42
2021/07/08 05:34:05;;;;;;;1.25;1.15;;;21.80;72.60;;;;;;5113766;28;20055;-48
2021/07/08 05:36:31;;;;;;;1.30;1.20;;;21.80;72.60;;;;;;5114311;28;20484;-47
2021/07/08 05:38:57;;;;;;;0.93;0.93;;;21.80;72.60;;;;;;5114369;28;20047;-47
2021/07/08 05:41:23;;;;;;;1.30;1.20;;;21.80;72.60;;;;;;5112826;28;20096;-49
2021/07/08 05:43:48;;;;;;;1.30;1.20;;;21.80;72.70;;;;;;5114589;28;20051;-52
2021/07/08 05:46:14;;;;;;;1.40;1.30;;;21.80;72.70;;;;;;5114467;28;20120;-49
2021/07/08 05:48:40;;;;;;;1.42;1.27;;;21.80;72.70;;;;;;5113395;28;20039;-47
2021/07/08 05:51:05;;;;;;;1.25;1.15;;;21.80;72.70;;;;;;5113559;28;20051;-46
2021/07/08 05:53:32;;;;;;;1.23;1.10;;;21.80;72.70;;;;;;5113808;28;20050;-49
2021/07/08 05:55:57;;;;;;;1.58;1.27;;;21.80;72.70;;;;;;5114363;28;20043;-42
2021/07/08 05:58:23;;;;;;;1.40;1.30;;;21.80;72.70;;;;;;5114233;28;20047;-45
2021/07/08 06:00:49;;;;;;;1.42;1.33;;;21.70;72.60;;;;;;5114362;28;20051;-44
2021/07/08 06:03:16;;;;;;;1.30;1.20;;;21.80;72.70;;;;;;5100691;28;20044;-46
2021/07/08 06:05:41;;;;;;;1.70;1.02;;;21.70;72.60;;;;;;5093924;28;20087;-43
2021/07/08 06:08:07;;;;;;;1.23;1.10;;;21.80;72.70;;;;;;5093923;28;20072;-51
2021/07/08 06:10:33;;;;;;;1.40;1.30;;;21.80;72.70;;;;;;5093966;28;20048;-47
2021/07/08 06:12:59;;;;;;;1.13;1.02;;;21.70;72.60;;;;;;5094876;28;20047;-45
2021/07/08 06:15:25;;;;;;;1.50;1.40;;;21.80;72.70;;;;;;5093316;28;20096;-48
2021/07/08 06:17:51;;;;;;;1.20;1.10;;;21.70;72.60;;;;;;5110520;28;20066;-48
2021/07/08 06:20:17;;;;;;;1.10;1.00;;;21.80;72.70;;;;;;5113258;28;20465;-49
2021/07/08 06:22:44;;;;;;;1.23;1.10;;;21.80;72.70;;;;;;5113354;28;20043;-43
2021/07/08 06:25:11;;;;;;;1.25;1.08;;;21.80;72.70;;;;;;5111931;28;20080;-46
2021/07/08 06:27:37;;;;;;;0.80;0.80;;;21.80;72.60;;;;;;5113416;28;20051;-53
2021/07/08 06:30:05;;;;;;;1.20;1.10;;;21.70;72.60;;;;;;5113435;28;20130;-49
2021/07/08 06:32:31;;;;;;;1.10;1.00;;;21.80;72.70;;;;;;5113632;28;20050;-48
2021/07/08 06:34:57;;;;;;;1.10;1.00;;;21.80;72.60;;;;;;5111381;28;20055;-46
2021/07/08 06:37:23;;;;;;;1.33;1.25;;;21.80;72.60;;;;;;5090046;28;20205;-49
2021/07/08 06:39:51;;;;;;;1.20;1.10;;;21.80;72.60;;;;;;5093068;28;20472;-46
2021/07/08 06:42:17;;;;;;;0.82;0.82;;;21.80;72.60;;;;;;5093294;28;20048;-49
2021/07/08 06:44:43;;;;;;;1.20;1.10;;;21.80;72.60;;;;;;5094039;28;20048;-46
2021/07/08 06:47:13;;;;;;;1.25;1.15;;;21.80;72.60;;;;;;5101219;28;20121;-46
2021/07/08 06:49:39;;;;;;;1.00;1.00;;;21.80;72.60;;;;;;5092971;28;20056;-46
2021/07/08 06:52:05;;;;;;;1.10;1.00;;;21.80;72.60;;;;;;5091958;28;20115;-46
2021/07/08 06:54:33;;;;;;;0.95;0.93;;;21.80;72.60;;;;;;5092947;28;20048;-49
2021/07/08 06:56:59;;;;;;;1.20;1.10;;;21.80;72.60;;;;;;5093776;28;20052;-51
2021/07/08 06:59:25;;;;;;;1.17;1.08;;;21.80;72.60;;;;;;5091752;28;20484;-50
2021/07/08 07:01:50;;;;;;;1.17;1.08;;;21.80;72.50;;;;;;5092442;28;20378;-50
2021/07/08 07:04:16;;;;;;;1.20;1.05;;;21.80;72.60;;;;;;5092221;28;20048;-42
2021/07/08 07:06:42;;;;;;;1.08;1.00;;;21.80;72.60;;;;;;5093002;28;20044;-47
2021/07/08 07:09:08;;;;;;;1.17;0.95;;;21.80;72.60;;;;;;5092399;28;20146;-50
2021/07/08 07:11:34;;;;;;;0.90;0.90;;;21.80;72.60;;;;;;5092478;28;20402;-47
2021/07/08 07:14:00;;;;;;;1.25;1.15;;;21.80;72.50;;;;;;5092397;28;20052;-49
2021/07/08 07:16:25;;;;;;;1.20;1.10;;;21.80;72.50;;;;;;5093289;28;20092;-48
2021/07/08 07:18:51;;;;;;;1.20;1.10;;;21.80;72.60;;;;;;5091942;28;20071;-47
2021/07/08 07:21:17;;;;;;;1.20;1.10;;;21.80;72.50;;;;;;5092098;28;20066;-47
2021/07/08 07:23:43;;;;;;;1.17;1.08;;;21.90;72.60;;;;;;5091776;28;20457;-53
2021/07/08 07:26:10;;;;;;;1.60;1.50;;;21.90;72.60;;;;;;5092381;28;20052;-54
2021/07/08 07:28:37;;;;;;;2.67;1.80;;;21.90;72.50;;;;;;5093161;28;20055;-47
2021/07/08 07:31:04;;;;;;;1.42;1.27;;;21.80;72.50;;;;;;5102665;28;20040;-47
2021/07/08 07:33:30;;;;;;;1.35;1.25;;;21.90;72.60;;;;;;5112336;28;20043;-49
2021/07/08 07:35:56;;;;;;;2.70;1.58;;;21.90;72.60;;;;;;5112451;28;20044;-44
2021/07/08 07:38:22;;;;;;;4.82;1.20;;;21.90;72.50;;;;;;5110058;28;20051;-49
2021/07/08 07:40:48;;;;;;;1.85;1.30;;;21.90;72.60;;;;;;5111994;28;20504;-46
2021/07/08 07:43:14;;;;;;;1.27;1.17;;;21.90;72.50;;;;;;5112488;28;20135;-51
2021/07/08 07:45:41;;;;;;;1.63;1.30;;;21.90;72.60;;;;;;5112201;28;20044;-46
2021/07/08 07:48:08;;;;;;;1.30;1.20;;;21.90;72.50;;;;;;5110811;28;20043;-48
2021/07/08 07:50:34;;;;;;;1.20;1.10;;;21.90;72.50;;;;;;5111862;28;20070;-48
2021/07/08 07:53:00;;;;;;;1.20;1.10;;;22.00;72.50;;;;;;5111974;28;20082;-48
2021/07/08 07:55:27;;;;;;;1.80;1.10;;;22.00;72.50;;;;;;5111983;28;20048;-48
2021/07/08 07:57:57;;;;;;;1.52;1.08;;;22.00;72.50;;;;;;5112113;28;20044;-51
2021/07/08 08:00:23;;;;;;;1.20;1.10;;;22.00;72.50;;;;;;5110411;28;20143;-47
2021/07/08 08:02:49;;;;;;;0.88;0.88;;;22.00;72.40;;;;;;5112288;28;20055;-49
2021/07/08 08:10:26;;;;;;;1.00;0.90;;;22.00;72.30;;;;;;5111419;28;20048;-49
2021/07/08 08:12:52;;;;;;;0.77;0.77;;;22.00;72.30;;;;;;5116463;28;20043;-45
2021/07/08 08:15:19;;;;;;;1.33;1.23;;;22.00;72.30;;;;;;5116326;28;20369;-50
2021/07/08 08:17:46;;;;;;;1.17;1.10;;;22.10;72.30;;;;;;5116386;28;20089;-51
2021/07/08 08:20:12;;;;;;;1.02;0.95;;;22.00;72.20;;;;;;5114742;28;20048;-47
2021/07/08 08:22:40;;;;;;;1.52;1.10;;;22.10;72.90;;;;;;5117052;28;20044;-48
2021/07/08 08:25:06;;;;;;;0.98;0.90;;;22.10;72.30;;;;;;5116327;28;20047;-43
2021/07/08 08:27:32;;;;;;;0.90;0.90;;;22.10;72.20;;;;;;5115445;28;20334;-49
2021/07/08 08:29:57;;;;;;;1.15;1.05;;;22.10;72.20;;;;;;5115829;28;20112;-47
2021/07/08 08:32:23;;;;;;;0.95;0.95;;;22.10;72.10;;;;;;5114208;28;20471;-41
2021/07/08 08:34:49;;;;;;;1.15;0.90;;;22.10;72.10;;;;;;5115539;28;20047;-49
2021/07/08 08:37:14;;;;;;;0.88;0.88;;;22.10;72.10;;;;;;5115739;28;20511;-48
2021/07/08 08:39:40;;;;;;;1.20;1.10;;;22.10;72.10;;;;;;5115759;28;20048;-45
2021/07/08 08:42:09;;;;;;;0.82;0.80;;;22.20;72.10;;;;;;5113613;28;20425;-52
2021/07/08 08:44:36;;;;;;;1.15;1.05;;;22.20;72.10;;;;;;5102921;28;20048;-49
2021/07/08 08:47:06;;;;;;;0.73;0.73;;;22.20;72.10;;;;;;5095329;28;20047;-52
2021/07/08 08:49:31;;;;;;;1.00;0.90;;;22.20;72.10;;;;;;5094992;28;20048;-44
2021/07/08 08:51:59;;;;;;;1.00;1.00;;;22.20;72.00;;;;;;5096016;28;20366;-45
2021/07/08 08:54:24;;;;;;;1.02;1.00;;;22.20;72.00;;;;;;5095092;28;20070;-48
2021/07/08 08:56:51;;;;;;;1.10;1.00;;;22.20;72.00;;;;;;5094281;28;20047;-47
2021/07/08 08:59:16;;;;;;;1.08;1.00;;;22.30;72.00;;;;;;5094799;28;20044;-49
2021/07/08 09:01:42;;;;;;;0.80;0.80;;;22.30;72.00;;;;;;5094369;28;20040;-47
2021/07/08 09:04:34;;;;;;;0.73;0.73;;;22.30;72.00;;;;;;5095761;28;20105;-44
2021/07/08 09:07:31;;;;;;;0.90;0.90;;;22.30;71.90;;;;;;5094509;28;20472;-46
2021/07/08 09:10:09;;;;;;;0.77;0.77;;;22.30;71.90;;;;;;5094742;28;20055;-49
2021/07/08 09:12:35;;;;;;;0.70;0.70;;;22.30;71.90;;;;;;5093905;28;20040;-46
2021/07/08 09:15:14;;;;;;;0.90;0.75;;;22.40;71.90;;;;;;5095525;28;20132;-47
2021/07/08 09:17:43;;;;;;;0.90;0.90;;;22.30;71.90;;;;;;5094371;28;20044;-46
2021/07/08 09:20:17;;;;;;;1.02;0.98;;;22.40;71.90;;;;;;5094437;28;20530;-50
2021/07/08 09:22:46;;;;;;;0.88;0.85;;;22.40;71.80;;;;;;5093475;28;20047;-48
2021/07/08 09:25:22;;;;;;;1.20;1.10;;;22.40;71.80;;;;;;5095172;28;20056;-48
2021/07/08 09:28:21;;;;;;;0.80;0.80;;;22.40;71.80;;;;;;5094331;28;20071;-46
2021/07/08 09:31:04;;;;;;;0.70;0.70;;;22.40;71.80;;;;;;5094281;28;20047;-48
2021/07/08 09:33:41;;;;;;;0.70;0.70;;;22.40;71.80;;;;;;5094166;28;20051;-51
2021/07/08 09:36:13;;;;;;;0.52;0.52;;;22.40;71.70;;;;;;5095142;28;20063;-49
2021/07/08 09:38:41;;;;;;;0.75;0.75;;;22.40;71.70;;;;;;5093786;28;20488;-46
2021/07/08 09:41:14;;;;;;;0.88;0.88;;;22.50;71.70;;;;;;5094144;28;20095;-45
2021/07/08 09:43:40;;;;;;;0.90;0.90;;;22.50;71.80;;;;;;5093561;28;20063;-48
2021/07/08 09:46:10;;;;;;;0.80;0.80;;;22.50;71.70;;;;;;5094880;28;20039;-53
2021/07/08 09:48:36;;;;;;;0.82;0.80;;;22.50;71.70;;;;;;5093636;28;20058;-47
2021/07/08 09:51:02;;;;;;;0.70;0.70;;;22.50;71.60;;;;;;5112747;28;20047;-45
2021/07/08 09:53:30;;;;;;;0.55;0.55;;;22.50;71.60;;;;;;5095967;28;20051;-51
2021/07/08 09:58:54;;;;;;;0.90;0.90;;;22.50;71.60;;;;;;5113744;28;20050;-51
2021/07/08 10:01:21;;;;;;;1.00;0.90;;;22.50;71.50;;;;;;5113590;28;20059;-50
2021/07/08 10:03:50;;;;;;;0.75;0.75;;;22.50;71.50;;;;;;5114595;28;20194;-48
2021/07/08 10:06:18;;;;;;;1.17;0.88;;;22.50;71.50;;;;;;5113633;28;20535;-44
2021/07/08 10:08:45;;;;;;;0.50;0.50;;;22.50;71.50;;;;;;5112659;28;20147;-49
2021/07/08 10:11:16;;;;;;;0.98;0.82;;;22.60;71.50;;;;;;5113791;28;20092;-50
2021/07/08 10:13:44;;;;;;;0.80;0.80;;;22.60;71.50;;;;;;5113668;28;20074;-53
2021/07/08 10:16:12;;;;;;;0.70;0.70;;;22.60;72.20;;;;;;5113196;28;20047;-49
2021/07/08 10:18:40;;;;;;;0.73;0.73;;;22.60;71.40;;;;;;5111885;28;20040;-45
2021/07/08 10:21:08;;;;;;;0.82;0.82;;;22.60;71.40;;;;;;5113678;28;20460;-52
2021/07/08 10:23:35;;;;;;;0.88;0.88;;;22.60;71.40;;;;;;5113678;28;20047;-52
2021/07/08 10:26:03;;;;;;;0.90;0.90;;;22.60;71.40;;;;;;5113721;28;20047;-46
2021/07/08 10:28:32;;;;;;;1.20;0.60;;;22.60;71.40;;;;;;5111588;28;20127;-51
2021/07/08 10:30:58;;;;;;;0.70;0.70;;;22.60;71.40;;;;;;5113269;28;20123;-54
2021/07/08 10:33:25;;;;;;;0.80;0.80;;;22.70;71.40;;;;;;5113352;28;20051;-48
2021/07/08 10:35:53;;;;;;;0.80;0.80;;;22.70;71.30;;;;;;5113455;28;20048;-50
2021/07/08 10:38:31;;;;;;;0.88;0.88;;;22.70;71.30;;;;;;5112027;28;20051;-51
2021/07/08 10:41:34;;;;;;;1.05;0.80;;;22.70;71.30;;;;;;5092964;28;20055;-50
2021/07/08 10:44:00;;;;;;;0.80;0.80;;;22.70;71.30;;;;;;5011270;28;20073;-52
2021/07/08 10:46:37;;;;;;;0.80;0.80;;;22.70;71.30;;;;;;5010595;28;20053;-46
2021/07/08 10:49:13;;;;;;;0.60;0.60;;;22.70;71.30;;;;;;5011512;28;20049;-43
2021/07/08 10:51:42;;;;;;;0.68;0.68;;;22.70;71.20;;;;;;5017364;28;20153;-45
2021/07/08 10:54:28;;;;;;;0.70;0.70;;;22.80;71.30;;;;;;5030270;28;20056;-46
2021/07/08 10:56:56;;;;;;;0.60;0.60;;;22.80;71.30;;;;;;5030178;28;20049;-45
2021/07/08 10:59:22;;;;;;;0.80;0.80;;;22.70;71.20;;;;;;5030355;28;20461;-50
2021/07/08 11:01:51;;;;;;;0.65;0.65;;;22.80;71.20;;;;;;5028342;28;20046;-46
2021/07/08 11:04:47;;;;;;;0.85;0.85;;;22.80;71.20;;;;;;5029734;28;20080;-44
2021/07/08 11:07:17;;;;;;;1.20;1.10;;;22.80;71.10;;;;;;5030021;28;20244;-46
2021/07/08 11:09:55;;;;;;;0.88;0.82;;;22.80;71.10;;;;;;5029994;28;20061;-49
2021/07/08 11:12:33;;;;;;;0.68;0.65;;;22.80;71.10;;;;;;5028132;28;20140;-48
2021/07/08 11:14:59;;;;;;;1.10;0.60;;;22.80;71.10;;;;;;5029858;28;20458;-46
2021/07/08 11:17:26;;;;;;;0.63;0.63;;;22.90;71.10;;;;;;5029461;28;20076;-47
2021/07/08 11:19:54;;;;;;;0.80;0.80;;;22.80;71.00;;;;;;5041422;28;20145;-49
2021/07/08 11:22:34;;;;;;;0.60;0.60;;;22.90;71.10;;;;;;5093378;28;20075;-44
2021/07/08 11:25:01;;;;;;;0.60;0.60;;;22.90;71.00;;;;;;5091957;28;20048;-50
2021/07/08 11:27:26;;;;;;;0.82;0.65;;;22.90;71.00;;;;;;5091936;28;20052;-45
2021/07/08 11:29:58;;;;;;;0.85;0.80;;;22.90;70.90;;;;;;5091867;28;20182;-51
2021/07/08 11:32:31;;;;;;;0.70;0.70;;;22.90;70.90;;;;;;5093083;28;20145;-44
2021/07/08 11:35:34;;;;;;;0.73;0.73;;;22.90;70.80;;;;;;5091690;28;20438;-49
2021/07/08 11:38:04;;;;;;;0.50;0.50;;;22.90;70.80;;;;;;5088566;28;20052;-50
2021/07/08 11:40:37;;;;;;;0.80;0.70;;;23.00;70.90;;;;;;5091873;28;20062;-46
2021/07/08 11:43:15;;;;;;;0.60;0.60;;;23.00;70.80;;;;;;5092783;28;20052;-46
2021/07/08 11:45:40;;;;;;;0.85;0.80;;;23.00;70.80;;;;;;5090951;28;20500;-49
2021/07/08 11:48:07;;;;;;;0.85;0.70;;;23.00;70.80;;;;;;5091714;28;20063;-47
2021/07/08 11:50:35;;;;;;;0.55;0.55;;;23.00;70.70;;;;;;5091137;28;20044;-44
2021/07/08 11:53:17;;;;;;;0.82;0.70;;;23.00;70.70;;;;;;5092798;28;20067;-51
2021/07/08 11:55:44;;;;;;;0.77;0.77;;;23.10;70.70;;;;;;5091586;28;20051;-45
2021/07/08 11:58:11;;;;;;;0.80;0.80;;;23.10;70.70;;;;;;5091516;28;20400;-49
2021/07/08 12:00:39;;;;;;;0.63;0.63;;;23.00;70.60;;;;;;5091316;28;20052;-47
2021/07/08 12:03:21;;;;;;;0.70;0.70;;;23.10;70.60;;;;;;5091285;28;20451;-50
2021/07/08 12:05:51;;;;;;;0.80;0.80;;;23.10;70.60;;;;;;5109788;28;20083;-44
2021/07/08 12:08:31;;;;;;;0.95;0.90;;;23.10;70.60;;;;;;5111813;28;20048;-42
2021/07/08 12:11:08;;;;;;;0.95;0.90;;;23.10;70.50;;;;;;5111668;28;20067;-49
2021/07/08 12:13:36;;;;;;;0.60;0.60;;;23.10;70.50;;;;;;5111352;28;20431;-43
2021/07/08 12:16:06;;;;;;;0.70;0.60;;;23.10;70.50;;;;;;5109938;28;20132;-45
2021/07/08 12:19:02;;;;;;;0.70;0.70;;;23.10;70.50;;;;;;5111569;28;20043;-46
2021/07/08 12:21:36;;;;;;;0.65;0.65;;;23.20;70.50;;;;;;5090089;28;20189;-41
2021/07/08 12:24:09;;;;;;;0.90;0.90;;;23.20;70.50;;;;;;5111447;28;20464;-46
2021/07/08 12:26:43;;;;;;;0.70;0.70;;;23.20;70.50;;;;;;5109990;28;20168;-50
2021/07/08 12:29:20;;;;;;;0.60;0.60;;;23.20;70.50;;;;;;5111314;28;20123;-46
2021/07/08 12:32:00;;;;;;;0.63;0.63;;;23.20;70.50;;;;;;5111624;28;20040;-52
2021/07/08 12:34:46;;;;;;;0.77;0.77;;;23.20;70.40;;;;;;5111536;28;20503;-51
2021/07/08 12:37:22;;;;;;;0.70;0.70;;;23.20;70.30;;;;;;5109331;28;20043;-45
2021/07/08 12:40:10;;;;;;;0.80;0.80;;;23.20;70.40;;;;;;5111621;28;20092;-48
2021/07/08 12:42:44;;;;;;;0.75;0.60;;;23.20;70.30;;;;;;5111554;28;20127;-52
2021/07/08 12:45:14;;;;;;;0.70;0.70;;;23.20;70.40;;;;;;5111668;28;20082;-42
2021/07/08 12:47:47;;;;;;;0.73;0.70;;;23.20;70.30;;;;;;5109813;28;20650;-46
2021/07/08 12:50:19;;;;;;;0.65;0.65;;;23.30;70.40;;;;;;5100745;28;20048;-47
2021/07/08 12:52:45;;;;;;;0.60;0.60;;;23.30;70.30;;;;;;5090770;28;20044;-52
2021/07/08 12:55:33;;;;;;;0.70;0.70;;;23.30;70.30;;;;;;5091324;28;20044;-49
2021/07/08 12:58:06;;;;;;;0.98;0.90;;;23.30;70.30;;;;;;5094160;28;20040;-47
2021/07/08 13:00:37;;;;;;;0.70;0.70;;;23.30;70.30;;;;;;5110239;28;20043;-47
2021/07/08 13:03:03;;;;;;;0.90;0.90;;;23.30;70.30;;;;;;5115629;28;20056;-50